Time;durP1;ratioP1;P1;durP2;ratioP2;P2;SDS_P1;SDS_P2;PMS_P1;PMS_P2;Temp;Humidity;BMP_temperature;BMP_pressure;BME280_temperature;BME280_humidity;BME280_pressure;Samples;Min_cycle;Max_cycle;Signal;HPM_P1;HPM_P2
2022/12/03 00:01:55;;;;;;;43.60;23.03;;;;;;;0.97;67.75;101173.31;4860547;28;96829;-90
2022/12/03 00:04:21;;;;;;;46.43;25.00;;;;;;;0.97;67.71;101165.56;4844608;28;96816;-88
2022/12/03 00:06:46;;;;;;;43.43;24.13;;;;;;;0.79;67.76;101140.22;4860173;28;101210;-89
2022/12/03 00:09:12;;;;;;;43.20;24.17;;;;;;;0.97;67.58;101161.25;4851851;28;101453;-89
2022/12/03 00:11:44;;;;;;;46.50;25.40;;;;;;;0.81;67.18;101126.47;4867267;28;96756;-89
2022/12/03 00:14:09;;;;;;;;;;;;;;;1.01;67.26;101175.09;4845447;28;96819;-89
2022/12/03 00:16:35;;;;;;;43.57;23.37;;;;;;;1.05;67.93;101170.03;4844192;28;101084;-90
2022/12/03 00:19:38;;;;;;;45.33;24.23;;;;;;;1.10;67.74;101170.09;4829167;28;101625;-88
2022/12/03 00:22:03;;;;;;;50.10;24.60;;;;;;;1.01;67.71;101165.63;4841602;29;96647;-88
2022/12/03 00:24:29;;;;;;;45.50;25.27;;;;;;;0.96;67.70;101177.63;4854370;28;96719;-89
2022/12/03 00:26:54;;;;;;;52.57;24.83;;;;;;;0.96;68.03;101172.44;4844848;28;101482;-90
2022/12/03 00:29:20;;;;;;;46.70;25.23;;;;;;;0.93;67.98;101171.50;4860084;28;101242;-88
2022/12/03 00:31:45;;;;;;;49.87;24.10;;;;;;;0.92;68.50;101169.75;4860605;28;96787;-89
2022/12/03 00:34:11;;;;;;;48.13;25.10;;;;;;;0.95;68.03;101165.50;4844514;28;96847;-90
2022/12/03 00:36:36;;;;;;;47.60;24.30;;;;;;;0.93;68.32;101153.41;4844609;28;100338;-89
2022/12/03 00:39:02;;;;;;;45.33;24.73;;;;;;;0.83;67.79;101139.44;4844580;28;101494;-89
2022/12/03 00:41:30;;;;;;;51.27;25.67;;;;;;;0.99;68.25;101169.91;4860120;28;96627;-88
2022/12/03 00:43:56;;;;;;;49.97;24.40;;;;;;;1.05;67.61;101166.56;4844231;28;97091;-89
2022/12/03 00:46:23;;;;;;;45.20;25.43;;;;;;;1.01;68.37;101163.03;4860243;28;98413;-89
2022/12/03 00:48:49;;;;;;;43.23;24.23;;;;;;;0.90;68.09;101136.09;4875805;28;97891;-89
2022/12/03 00:51:39;;;;;;;45.87;25.10;;;;;;;1.01;68.12;101155.28;4844670;28;96671;-90
2022/12/03 00:54:05;;;;;;;47.33;24.83;;;;;;;0.98;68.14;101160.38;4860595;28;96579;-88
2022/12/03 00:56:30;;;;;;;48.90;24.70;;;;;;;0.98;67.96;101157.81;4843591;28;102116;-89
2022/12/03 00:58:56;;;;;;;53.73;25.73;;;;;;;0.88;68.41;101153.31;4844320;28;101488;-89
2022/12/03 01:05:08;;;;;;;48.07;25.53;;;;;;;0.93;68.42;101156.84;4885551;28;97768;-89
2022/12/03 01:07:35;;;;;;;52.10;27.20;;;;;;;0.98;68.81;101146.59;4862301;28;101349;-89
2022/12/03 01:10:02;;;;;;;59.67;27.40;;;;;;;0.89;68.40;101158.50;4862785;28;100832;-87
2022/12/03 01:12:27;;;;;;;50.13;26.23;;;;;;;0.93;68.29;101159.44;4863117;28;96597;-89
2022/12/03 01:14:53;;;;;;;47.93;25.17;;;;;;;0.96;68.13;101161.19;4862751;28;96744;-89
2022/12/03 01:17:18;;;;;;;48.23;25.37;;;;;;;0.93;68.39;101143.06;4846980;28;101337;-88
2022/12/03 01:19:51;;;;;;;49.40;25.53;;;;;;;0.88;67.79;101137.81;4847380;28;97441;-88
2022/12/03 01:22:16;;;;;;;49.80;26.07;;;;;;;1.00;68.46;101163.03;4831204;29;96728;-89
2022/12/03 01:24:42;;;;;;;52.10;26.67;;;;;;;0.97;68.25;101153.50;4841335;29;96687;-88
2022/12/03 01:27:07;;;;;;;50.70;28.13;;;;;;;1.05;68.17;101151.06;4828580;29;101150;-90
2022/12/03 01:29:33;;;;;;;46.17;23.67;;;;;;;1.07;68.07;101157.09;4809709;29;100110;-88
2022/12/03 01:35:09;;;;;;;45.43;24.40;;;;;;;1.03;67.77;101157.91;4847155;29;96633;-91
2022/12/03 01:37:35;;;;;;;51.83;26.00;;;;;;;0.98;68.34;101151.78;4825083;29;101454;-89
2022/12/03 01:40:00;;;;;;;44.07;24.77;;;;;;;1.02;68.04;101157.03;4826382;28;100265;-88
2022/12/03 01:42:28;;;;;;;49.77;25.50;;;;;;;1.08;67.63;101159.72;4828211;28;96735;-88
2022/12/03 01:44:59;;;;;;;50.17;25.87;;;;;;;1.05;68.42;101153.66;4844171;28;96778;-91
2022/12/03 01:47:33;;;;;;;52.03;26.03;;;;;;;0.94;68.68;101144.81;4842473;28;100102;-88
2022/12/03 01:50:22;;;;;;;46.00;25.43;;;;;;;0.95;68.28;101143.97;4843397;28;101459;-88
2022/12/03 01:52:48;;;;;;;49.17;25.13;;;;;;;0.90;68.34;101152.50;4843541;28;96748;-89
2022/12/03 01:55:30;;;;;;;51.97;25.30;;;;;;;0.89;68.85;101148.16;4827711;28;96858;-91
2022/12/03 01:57:58;;;;;;;51.57;26.73;;;;;;;0.90;69.40;101149.03;4827584;28;101553;-90
2022/12/03 02:00:28;;;;;;;51.53;26.40;;;;;;;0.88;68.44;101141.25;4827941;28;101556;-90
2022/12/03 02:03:30;;;;;;;48.43;25.50;;;;;;;0.89;68.73;101147.31;4835807;28;96736;-91
2022/12/03 02:06:02;;;;;;;48.75;26.02;;;;;;;0.89;68.89;101137.81;4876333;28;96774;-89
2022/12/03 02:08:32;;;;;;;50.80;26.27;;;;;;;0.86;69.14;101139.50;4865350;28;101160;-88
2022/12/03 02:11:02;;;;;;;50.87;24.77;;;;;;;0.88;69.16;101130.94;4872725;28;101366;-88
2022/12/03 02:13:28;;;;;;;51.57;26.07;;;;;;;0.97;68.84;101134.53;4858661;28;96825;-88
2022/12/03 02:15:55;;;;;;;50.37;25.77;;;;;;;0.82;68.73;101123.06;4845637;28;96902;-89
2022/12/03 02:18:20;;;;;;;43.40;23.17;;;;;;;0.94;68.84;101139.66;4858646;28;101214;-89
2022/12/03 02:21:04;;;;;;;58.27;25.47;;;;;;;0.96;68.10;101131.06;4843445;28;99795;-89
2022/12/03 02:23:36;;;;;;;53.10;26.33;;;;;;;1.03;68.60;101140.66;4879686;28;96915;-88
2022/12/03 02:26:04;;;;;;;48.27;24.87;;;;;;;0.99;68.63;101144.06;4881005;28;97078;-90
2022/12/03 02:28:29;;;;;;;49.33;25.20;;;;;;;0.72;68.74;101097.88;4864772;28;101335;-88
2022/12/03 02:34:47;;;;;;;47.47;24.50;;;;;;;1.00;69.49;101142.34;4897072;28;96676;-89
2022/12/03 02:37:37;;;;;;;46.77;24.70;;;;;;;1.12;68.92;101138.25;4865362;28;96842;-89
2022/12/03 02:40:06;;;;;;;45.23;23.53;;;;;;;1.02;69.53;101138.94;4880905;28;101446;-90
2022/12/03 02:42:34;;;;;;;51.90;24.33;;;;;;;1.04;69.23;101136.38;4865341;28;101353;-89
2022/12/03 02:45:03;;;;;;;48.87;25.77;;;;;;;1.05;69.25;101140.72;4881221;28;97191;-90
2022/12/03 02:47:30;;;;;;;50.60;24.43;;;;;;;1.01;69.65;101133.72;4880220;28;96751;-89
2022/12/03 02:49:56;;;;;;;53.03;26.90;;;;;;;0.95;69.80;101139.66;4880501;28;98414;-89
2022/12/03 02:52:22;;;;;;;48.53;24.87;;;;;;;0.88;69.79;101132.66;4880171;28;101312;-89
2022/12/03 02:54:48;;;;;;;49.90;24.83;;;;;;;0.96;69.86;101123.31;4864824;28;96613;-89
2022/12/03 02:57:14;;;;;;;49.30;26.07;;;;;;;0.78;69.92;101108.31;4881130;28;96636;-90
2022/12/03 02:59:40;;;;;;;51.47;25.67;;;;;;;0.78;70.05;101110.91;4883963;28;98525;-90
2022/12/03 03:02:06;;;;;;;44.37;24.73;;;;;;;0.84;70.40;101115.31;4867757;28;100864;-88
2022/12/03 03:04:33;;;;;;;48.17;25.00;;;;;;;1.00;70.55;101134.56;4883125;28;96654;-89
2022/12/03 03:06:59;;;;;;;44.37;22.87;;;;;;;0.94;70.20;101135.34;4868448;28;96727;-88
2022/12/03 03:09:25;;;;;;;49.67;24.90;;;;;;;0.91;70.26;101137.88;4868085;28;101409;-88
2022/12/03 03:11:50;;;;;;;44.93;24.90;;;;;;;0.91;70.37;101130.13;4867937;28;100233;-88
2022/12/03 03:14:16;;;;;;;50.67;24.47;;;;;;;0.95;69.93;101133.63;4883208;28;97396;-88
2022/12/03 03:16:41;;;;;;;48.70;26.00;;;;;;;0.94;70.12;101131.88;4883684;28;96876;-90
2022/12/03 03:19:07;;;;;;;44.60;23.47;;;;;;;0.94;70.09;101131.88;4867665;28;100359;-90
2022/12/03 03:21:32;;;;;;;43.30;22.90;;;;;;;0.68;70.09;101071.09;4883305;28;99610;-88
2022/12/03 03:23:58;;;;;;;44.80;24.77;;;;;;;1.00;69.54;101129.41;4868118;28;96603;-89
2022/12/03 03:26:23;;;;;;;49.50;24.37;;;;;;;0.79;69.88;101104.91;4883195;28;96930;-90
2022/12/03 03:28:50;;;;;;;47.57;23.97;;;;;;;1.10;69.29;101119.22;4883181;28;101120;-88
2022/12/03 03:31:20;;;;;;;49.13;24.97;;;;;;;0.89;69.78;101111.97;4867843;28;101064;-89
2022/12/03 03:33:46;;;;;;;48.13;24.27;;;;;;;0.95;69.94;101120.69;4868640;28;96620;-88
2022/12/03 03:36:13;;;;;;;48.90;25.27;;;;;;;0.95;70.04;101111.22;4867599;28;96817;-88
2022/12/03 03:42:06;;;;;;;45.03;24.40;;;;;;;1.04;69.91;101110.50;4895088;28;101433;-88
2022/12/03 03:44:31;;;;;;;45.17;23.53;;;;;;;0.97;69.97;101111.25;4848360;28;96742;-88
2022/12/03 03:46:57;;;;;;;44.67;23.03;;;;;;;0.86;69.73;101099.00;4848339;28;96778;-89
2022/12/03 03:49:23;;;;;;;44.37;23.43;;;;;;;0.98;69.31;101107.81;4871106;28;99216;-89
2022/12/03 03:52:05;;;;;;;42.20;22.57;;;;;;;1.01;69.38;101102.69;4866650;28;100072;-89
2022/12/03 03:54:31;;;;;;;49.60;25.47;;;;;;;1.07;69.40;101098.50;4863843;28;96675;-89
2022/12/03 03:57:25;;;;;;;48.50;24.27;;;;;;;0.98;69.11;101089.72;4878273;28;96868;-89
2022/12/03 04:00:20;;;;;;;45.20;24.93;;;;;;;0.90;70.08;101097.31;4882910;28;100324;-89
2022/12/03 04:02:46;;;;;;;42.90;22.87;;;;;;;0.88;69.59;101094.72;4866720;28;101566;-88
2022/12/03 04:05:20;;;;;;;44.73;22.97;;;;;;;0.78;69.77;101071.25;4882984;28;96847;-88
2022/12/03 04:07:46;;;;;;;45.27;23.50;;;;;;;0.93;69.47;101097.38;4871289;28;97223;-89
2022/12/03 04:12:57;;;;;;;46.20;22.80;;;;;;;0.84;69.64;101092.06;4879811;28;99424;-90
2022/12/03 04:15:23;;;;;;;44.67;24.77;;;;;;;0.81;69.77;101089.41;4848045;28;96753;-89
2022/12/03 04:18:41;;;;;;;47.10;23.90;;;;;;;0.79;69.98;101091.13;4863839;28;96879;-89
2022/12/03 04:23:47;;;;;;;45.43;24.13;;;;;;;0.77;69.61;101080.75;4879701;28;101521;-89
2022/12/03 04:36:31;;;;;;;48.20;24.70;;;;;;;0.92;70.30;101085.31;4860034;28;101149;-90
2022/12/03 04:38:56;;;;;;;49.57;24.53;;;;;;;0.90;69.59;101094.75;4860808;28;96659;-88
2022/12/03 04:41:22;;;;;;;42.77;23.63;;;;;;;0.89;69.76;101091.28;4828967;28;96827;-88
2022/12/03 04:46:32;;;;;;;47.57;23.00;;;;;;;0.93;69.98;101096.50;4846762;28;98350;-89
2022/12/03 04:48:58;;;;;;;45.07;23.47;;;;;;;0.95;70.07;101094.84;4828796;28;96811;-89
2022/12/03 04:51:41;;;;;;;45.10;23.57;;;;;;;0.92;69.35;101099.97;4829339;28;96833;-88
2022/12/03 04:54:06;;;;;;;46.87;24.30;;;;;;;0.83;69.81;101086.00;4844344;28;100850;-89
2022/12/03 04:56:32;;;;;;;44.93;22.97;;;;;;;0.93;70.00;101088.75;4828616;28;101258;-88
2022/12/03 05:03:00;;;;;;;44.57;23.27;;;;;;;0.95;69.49;101093.13;4874324;28;96623;-88
2022/12/03 05:05:25;;;;;;;48.03;24.00;;;;;;;0.95;69.45;101092.25;4828971;28;101486;-88
2022/12/03 05:07:51;;;;;;;49.17;24.20;;;;;;;1.00;69.78;101098.38;4844183;28;100074;-91
2022/12/03 05:10:16;;;;;;;46.60;24.60;;;;;;;1.01;69.98;101094.94;4828636;28;96997;-87
2022/12/03 05:12:42;;;;;;;50.93;24.67;;;;;;;1.00;69.69;101081.16;4844183;28;96969;-88
2022/12/03 05:15:07;;;;;;;51.70;25.73;;;;;;;1.08;69.54;101097.66;4828055;28;101266;-88
2022/12/03 05:17:33;;;;;;;50.60;25.13;;;;;;;1.02;69.76;101078.56;4844489;28;98184;-89
2022/12/03 05:23:01;;;;;;;51.07;25.47;;;;;;;1.05;69.59;101094.16;4844144;29;96858;-89
2022/12/03 05:25:27;;;;;;;43.87;24.47;;;;;;;0.99;69.53;101081.09;4869419;28;98557;-89
2022/12/03 05:28:36;;;;;;;46.00;25.43;;;;;;;1.09;69.60;101085.59;4878468;28;98508;-91
2022/12/03 05:31:03;;;;;;;44.30;23.87;;;;;;;1.11;69.57;101079.63;4878675;28;96712;-89
2022/12/03 05:33:29;;;;;;;49.77;24.97;;;;;;;1.01;69.32;101063.91;4846798;28;96624;-89
2022/12/03 05:35:55;;;;;;;45.27;23.60;;;;;;;1.18;69.58;101079.72;4846808;28;101532;-88
2022/12/03 05:38:20;;;;;;;45.37;24.03;;;;;;;1.07;69.90;101071.75;4857402;28;101782;-88
2022/12/03 05:40:46;;;;;;;44.70;24.67;;;;;;;1.26;69.58;101084.16;4831840;28;96546;-90
2022/12/03 05:43:11;;;;;;;54.40;25.47;;;;;;;1.15;69.33;101090.88;4830608;28;96923;-89
2022/12/03 05:45:39;;;;;;;47.90;24.27;;;;;;;1.11;69.79;101081.34;4843108;28;100254;-90
2022/12/03 05:48:07;;;;;;;50.43;26.40;;;;;;;1.14;69.17;101078.78;4858675;28;100706;-91
2022/12/03 05:50:34;;;;;;;48.03;25.43;;;;;;;1.07;69.91;101076.94;4861336;28;96665;-89
2022/12/03 05:53:13;;;;;;;50.70;26.07;;;;;;;1.16;70.21;101076.22;4864062;28;96750;-89
2022/12/03 05:55:38;;;;;;;54.00;25.63;;;;;;;1.21;69.83;101078.03;4873932;28;99942;-89
2022/12/03 05:58:04;;;;;;;49.50;26.60;;;;;;;1.10;70.09;101071.81;4862035;28;97113;-89
2022/12/03 06:00:32;;;;;;;49.70;24.67;;;;;;;1.16;69.97;101078.81;4846513;28;96789;-89
2022/12/03 06:02:58;;;;;;;49.03;25.27;;;;;;;1.16;69.78;101077.09;4846461;28;96750;-88
2022/12/03 06:05:23;;;;;;;48.17;25.80;;;;;;;1.18;69.79;101083.16;4858974;28;101275;-90
2022/12/03 06:07:50;;;;;;;55.47;26.53;;;;;;;1.24;69.82;101084.97;4848684;28;100919;-88
2022/12/03 06:10:20;;;;;;;53.03;26.70;;;;;;;1.18;69.56;101092.66;4844424;28;96669;-89
2022/12/03 06:12:46;;;;;;;52.47;27.20;;;;;;;1.11;69.27;101077.03;4862042;28;97450;-90
2022/12/03 06:15:13;;;;;;;51.20;25.97;;;;;;;1.10;69.69;101083.03;4861736;28;100456;-90
2022/12/03 06:17:39;;;;;;;55.00;28.00;;;;;;;1.21;69.78;101090.97;4831692;28;101139;-90
2022/12/03 06:20:25;;;;;;;52.57;25.37;;;;;;;1.13;69.57;101087.38;4843978;28;96593;-90
2022/12/03 06:26:49;;;;;;;52.87;27.17;;;;;;;1.14;69.87;101083.97;4872760;28;96651;-88
2022/12/03 06:29:15;;;;;;;50.77;26.40;;;;;;;1.18;69.61;101084.88;4843109;28;101514;-89
2022/12/03 06:31:41;;;;;;;53.47;26.67;;;;;;;1.29;69.85;101089.38;4842620;28;96903;-89
2022/12/03 06:37:54;;;;;;;54.43;26.40;;;;;;;1.09;70.07;101089.06;4871152;28;96572;-88
2022/12/03 06:40:20;;;;;;;50.63;26.57;;;;;;;1.09;69.77;101081.28;4830805;28;100337;-90
2022/12/03 06:42:45;;;;;;;55.53;27.13;;;;;;;1.06;69.69;101080.38;4829917;28;97741;-89
2022/12/03 06:45:11;;;;;;;52.53;25.70;;;;;;;1.08;70.19;101083.88;4848195;28;97303;-88
2022/12/03 06:47:36;;;;;;;55.50;26.70;;;;;;;1.10;69.65;101092.50;4861705;28;99970;-88
2022/12/03 06:50:03;;;;;;;57.10;27.93;;;;;;;1.14;69.87;101078.78;4842698;29;98491;-88
2022/12/03 06:52:28;;;;;;;45.27;24.47;;;;;;;1.15;69.67;101092.59;4861241;28;96620;-88
2022/12/03 06:54:53;;;;;;;52.17;26.30;;;;;;;1.00;69.98;101057.00;4846460;28;96832;-88
2022/12/03 06:57:19;;;;;;;58.83;28.50;;;;;;;1.33;69.68;101098.06;4845866;28;101233;-89
2022/12/03 06:59:44;;;;;;;51.83;27.40;;;;;;;1.25;69.78;101092.78;4846426;28;101631;-90
2022/12/03 07:05:56;;;;;;;53.37;26.40;;;;;;;1.20;69.76;101085.78;4895659;28;97018;-88
2022/12/03 07:08:22;;;;;;;53.20;25.17;;;;;;;1.16;69.73;101084.84;4864513;28;98332;-88
2022/12/03 07:10:48;;;;;;;52.17;28.40;;;;;;;1.32;69.82;101081.66;4848300;28;101251;-91
2022/12/03 07:13:50;;;;;;;51.63;27.23;;;;;;;1.23;69.76;101085.84;4865813;28;96658;-90
2022/12/03 07:19:47;;;;;;;60.77;27.53;;;;;;;1.18;70.23;101088.34;4893882;28;96630;-90
2022/12/03 07:22:18;;;;;;;53.43;27.03;;;;;;;1.11;69.84;101084.78;4849008;28;101197;-91
2022/12/03 07:24:44;;;;;;;51.27;27.27;;;;;;;1.11;70.22;101079.63;4848073;28;96536;-92
2022/12/03 07:27:09;;;;;;;52.20;27.07;;;;;;;1.15;70.37;101080.53;4846705;28;96861;-90
2022/12/03 07:41:21;;;;;;;53.90;27.63;;;;;;;1.15;70.12;101077.94;4912805;28;96480;-91
2022/12/03 07:43:51;;;;;;;59.73;27.90;;;;;;;1.08;69.86;101076.97;4861500;28;100419;-91
2022/12/03 07:46:16;;;;;;;54.63;27.63;;;;;;;1.08;70.49;101092.50;4850859;28;98398;-91
2022/12/03 07:48:42;;;;;;;56.77;28.87;;;;;;;1.12;70.43;101086.53;4847920;28;96661;-90
2022/12/03 07:51:07;;;;;;;57.77;28.80;;;;;;;1.21;70.30;101074.59;4863399;28;97003;-89
2022/12/03 07:53:34;;;;;;;55.13;28.00;;;;;;;1.16;69.85;101060.69;4834149;28;101678;-88
2022/12/03 08:03:34;;;;;;;57.43;27.83;;;;;;;1.10;70.56;101066.66;4857350;29;96770;-90
2022/12/03 08:06:01;;;;;;;57.50;27.47;;;;;;;1.13;70.85;101069.28;4826594;29;100242;-91
2022/12/03 08:08:27;;;;;;;55.07;28.67;;;;;;;1.28;70.38;101073.81;4792690;29;99770;-91
2022/12/03 08:10:57;;;;;;;53.37;26.47;;;;;;;1.27;70.40;101072.97;4822373;29;97257;-89
2022/12/03 08:13:22;;;;;;;54.93;27.13;;;;;;;1.29;70.51;101070.41;4820892;29;97160;-87
2022/12/03 08:15:47;;;;;;;54.30;27.97;;;;;;;1.42;70.07;101069.75;4803981;29;100227;-87
2022/12/03 08:18:20;;;;;;;50.80;25.43;;;;;;;1.27;69.71;101054.00;4799053;29;100329;-86
2022/12/03 08:20:48;;;;;;;56.40;28.67;;;;;;;1.13;70.04;101044.31;4814872;29;97231;-86
2022/12/03 08:23:19;;;;;;;54.37;28.53;;;;;;;1.39;70.15;101063.66;4818956;29;97016;-88
2022/12/03 08:25:45;;;;;;;53.58;26.27;;;;;;;1.32;70.08;101076.50;4800216;29;100355;-85
2022/12/03 08:28:12;;;;;;;55.83;28.90;;;;;;;1.33;70.05;101072.19;4810855;29;98043;-90
2022/12/03 08:30:42;;;;;;;69.17;30.80;;;;;;;1.14;69.71;101029.66;4830097;28;97645;-87
2022/12/03 08:33:26;;;;;;;59.07;28.73;;;;;;;1.34;69.84;101050.66;4808791;29;97320;-87
2022/12/03 08:35:52;;;;;;;59.30;29.80;;;;;;;1.25;70.48;101038.47;4830748;29;101435;-86
2022/12/03 08:38:21;;;;;;;58.23;29.43;;;;;;;1.31;70.44;101023.03;4814973;28;100765;-88
2022/12/03 08:40:48;;;;;;;63.80;29.77;;;;;;;1.33;70.39;101033.38;4835404;28;97132;-87
2022/12/03 08:43:16;;;;;;;55.63;28.53;;;;;;;1.38;70.44;101033.47;4830301;28;97124;-87
2022/12/03 08:45:42;;;;;;;51.27;26.47;;;;;;;1.39;69.96;101035.19;4827276;28;101437;-87
2022/12/03 08:48:33;;;;;;;58.83;30.47;;;;;;;1.43;70.06;101039.59;4837478;28;99788;-88
2022/12/03 08:51:14;;;;;;;52.67;28.70;;;;;;;1.32;70.35;101042.00;4834988;29;96889;-86
2022/12/03 08:53:45;;;;;;;54.97;27.00;;;;;;;1.39;70.40;101049.00;4822202;29;97061;-87
2022/12/03 08:56:10;;;;;;;58.60;28.73;;;;;;;1.47;69.76;101046.53;4838197;28;100304;-88
2022/12/03 08:58:39;;;;;;;57.73;29.23;;;;;;;1.43;69.67;101043.03;4835091;29;101769;-88
2022/12/03 09:01:26;;;;;;;53.33;28.43;;;;;;;1.49;69.92;101045.72;4831593;28;97057;-88
2022/12/03 09:03:53;;;;;;;60.07;30.53;;;;;;;1.56;69.51;101042.34;4825325;28;97511;-88
2022/12/03 09:06:19;;;;;;;57.47;28.87;;;;;;;1.57;69.79;101041.53;4841005;28;100790;-89
2022/12/03 09:08:45;;;;;;;55.60;29.33;;;;;;;1.51;70.24;101041.44;4839945;28;100739;-88
2022/12/03 09:11:11;;;;;;;62.50;30.03;;;;;;;1.62;69.89;101043.28;4840377;28;97135;-93
2022/12/03 09:13:37;;;;;;;58.20;30.57;;;;;;;1.52;69.51;101040.56;4837174;28;96904;-88
2022/12/03 09:16:02;;;;;;;60.87;30.70;;;;;;;1.58;69.46;101034.63;4833996;28;100019;-93
2022/12/03 09:18:28;;;;;;;63.57;31.10;;;;;;;1.69;69.68;101040.81;4835377;28;100916;-87
2022/12/03 09:20:54;;;;;;;63.83;32.37;;;;;;;1.65;69.59;101048.50;4859913;28;96850;-92
2022/12/03 09:23:21;;;;;;;67.60;31.90;;;;;;;1.66;69.38;101040.78;4838160;28;96892;-90
2022/12/03 09:25:47;;;;;;;63.80;31.73;;;;;;;1.52;69.90;101022.47;4835001;28;100294;-88
2022/12/03 09:28:12;;;;;;;66.57;33.10;;;;;;;1.68;69.50;101045.97;4858334;28;100369;-91
2022/12/03 09:30:38;;;;;;;67.40;33.77;;;;;;;1.63;69.83;101035.56;4846881;28;96759;-93
2022/12/03 09:33:03;;;;;;;74.50;35.67;;;;;;;1.71;69.69;101040.81;4841531;28;96737;-93
2022/12/03 09:35:29;;;;;;;67.13;33.97;;;;;;;1.57;69.41;101012.16;4842260;28;101389;-90
2022/12/03 09:37:54;;;;;;;64.60;33.10;;;;;;;1.63;69.37;101019.13;4837083;28;101320;-92
2022/12/03 09:40:20;;;;;;;63.63;32.43;;;;;;;1.79;69.14;101034.91;4851008;28;97653;-92
2022/12/03 09:42:46;;;;;;;64.37;33.27;;;;;;;1.85;69.20;101044.47;4855931;28;96898;-91
2022/12/03 09:45:13;;;;;;;69.83;33.60;;;;;;;1.65;69.52;101014.88;4850916;28;101068;-91
2022/12/03 09:47:44;;;;;;;67.03;34.90;;;;;;;1.48;69.19;101009.44;4851232;28;100657;-89
2022/12/03 09:50:13;;;;;;;60.58;34.40;;;;;;;1.36;69.54;100974.78;4882315;28;96797;-91
2022/12/03 09:53:18;;;;;;;68.10;36.03;;;;;;;1.91;69.31;101044.53;4862172;28;96807;-89
2022/12/03 09:55:45;;;;;;;65.53;33.83;;;;;;;1.81;68.65;101022.00;4871902;28;101316;-91
2022/12/03 09:58:13;;;;;;;68.53;35.13;;;;;;;1.78;69.36;101019.38;4859809;28;100407;-91
2022/12/03 10:03:22;;;;;;;59.33;33.33;;;;;;;1.75;68.96;101006.38;4905531;23;97507;-82
2022/12/03 10:05:48;;;;;;;62.20;32.03;;;;;;;1.90;68.89;101027.28;4847368;28;100570;-86
2022/12/03 10:08:19;;;;;;;62.60;31.57;;;;;;;1.91;69.24;101049.72;4853346;28;100280;-88
2022/12/03 10:10:46;;;;;;;59.57;30.03;;;;;;;1.92;69.23;101037.63;4856882;28;97977;-86
2022/12/03 10:13:21;;;;;;;60.23;31.50;;;;;;;1.86;69.70;101029.78;4830185;28;98767;-88
2022/12/03 10:15:47;;;;;;;63.00;31.07;;;;;;;1.74;69.73;101013.25;4873858;28;101756;-86
2022/12/03 10:18:19;;;;;;;58.10;31.17;;;;;;;1.95;69.50;101041.16;4843424;28;100461;-88
2022/12/03 10:20:45;;;;;;;60.70;32.23;;;;;;;1.93;68.75;101037.69;4838558;28;98261;-87
2022/12/03 10:23:28;;;;;;;64.77;32.53;;;;;;;1.95;69.27;101037.69;4858455;28;97021;-87
2022/12/03 10:26:04;;;;;;;65.03;33.27;;;;;;;1.89;69.00;101027.25;4841507;28;100415;-85
2022/12/03 10:28:33;;;;;;;65.90;33.17;;;;;;;1.86;69.65;101030.66;4843414;28;100572;-85
2022/12/03 10:31:01;;;;;;;62.00;31.93;;;;;;;1.86;69.50;101033.25;4844351;28;97184;-85
2022/12/03 10:33:33;;;;;;;62.33;31.90;;;;;;;1.74;70.01;101018.44;4875204;28;97597;-83
2022/12/03 10:36:19;;;;;;;68.30;34.70;;;;;;;1.89;69.77;101024.66;4853304;28;101878;-84
2022/12/03 10:38:45;;;;;;;63.70;32.63;;;;;;;1.91;69.94;101023.81;4855501;28;101768;-86
2022/12/03 10:41:22;;;;;;;61.00;31.73;;;;;;;2.00;69.22;101018.75;4854206;28;97165;-88
2022/12/03 10:43:48;;;;;;;62.73;31.67;;;;;;;1.93;69.65;101018.69;4847581;28;96886;-92
2022/12/03 10:46:17;;;;;;;69.37;33.47;;;;;;;1.75;69.64;100989.13;4862235;28;102139;-91
2022/12/03 10:48:42;;;;;;;64.97;34.37;;;;;;;1.92;69.62;101003.97;4865916;28;97928;-90
2022/12/03 10:51:21;;;;;;;72.47;36.13;;;;;;;2.01;69.34;101010.16;4859500;28;96772;-93
2022/12/03 10:53:48;;;;;;;63.93;32.93;;;;;;;1.93;69.71;100985.03;4869828;28;96858;-92
2022/12/03 10:56:18;;;;;;;66.40;33.43;;;;;;;2.01;69.53;100986.84;4859462;28;100918;-93
2022/12/03 10:58:44;;;;;;;68.80;35.47;;;;;;;2.15;69.32;100999.97;4845239;28;99555;-92
2022/12/03 11:01:17;;;;;;;61.73;32.97;;;;;;;2.05;68.96;100982.56;4869012;28;97771;-92
2022/12/03 11:03:44;;;;;;;64.23;31.67;;;;;;;2.09;69.32;100989.50;4854546;28;96867;-94
2022/12/03 11:06:15;;;;;;;61.60;33.73;;;;;;;2.03;69.30;100982.53;4838737;28;101447;-88
2022/12/03 11:08:43;;;;;;;71.43;34.67;;;;;;;2.03;70.02;100989.44;4846588;28;101320;-90
2022/12/03 11:11:19;;;;;;;60.87;33.43;;;;;;;1.83;69.71;100952.94;4863028;28;97309;-91
2022/12/03 11:13:48;;;;;;;69.60;37.63;;;;;;;2.16;69.21;100991.34;4866786;28;96649;-88
2022/12/03 11:16:39;;;;;;;63.17;34.13;;;;;;;1.82;69.54;100946.03;4846836;28;97968;-85
2022/12/03 11:19:11;;;;;;;62.70;35.10;;;;;;;2.08;70.09;100985.19;4867939;28;101063;-85
2022/12/03 11:22:02;;;;;;;61.72;33.75;;;;;;;1.80;69.58;100940.88;4860845;28;96864;-85
2022/12/03 11:24:28;;;;;;;75.27;37.87;;;;;;;2.01;69.86;100957.50;4876977;28;96800;-87
2022/12/03 11:26:53;;;;;;;83.77;39.07;;;;;;;1.98;69.94;100950.56;4859363;28;97688;-88
2022/12/03 11:29:49;;;;;;;88.83;40.93;;;;;;;2.15;69.53;100973.16;4873863;28;99961;-88
2022/12/03 11:32:36;;;;;;;75.03;37.93;;;;;;;2.22;69.85;100972.41;4868963;28;96716;-88
2022/12/03 11:35:15;;;;;;;76.10;37.00;;;;;;;2.17;69.98;100967.16;4875393;28;96823;-88
2022/12/03 11:37:40;;;;;;;77.67;38.40;;;;;;;2.21;70.16;100960.28;4865611;28;100691;-88
2022/12/03 11:40:15;;;;;;;69.93;37.03;;;;;;;2.24;69.20;100966.38;4856341;28;100148;-85
2022/12/03 11:42:41;;;;;;;75.67;39.67;;;;;;;2.18;69.91;100968.00;4897721;28;96746;-88
2022/12/03 11:45:09;;;;;;;72.50;38.27;;;;;;;2.19;69.73;100970.63;4866646;28;96993;-86
2022/12/03 11:47:44;;;;;;;70.73;38.93;;;;;;;2.21;69.74;100950.81;4860642;28;101412;-85
2022/12/03 11:50:22;;;;;;;76.53;39.37;;;;;;;2.25;69.92;100962.94;4859450;28;99959;-85
2022/12/03 11:52:52;;;;;;;76.53;37.83;;;;;;;2.22;69.73;100949.06;4868103;28;97570;-86
2022/12/03 11:55:29;;;;;;;68.90;38.00;;;;;;;2.32;70.34;100957.81;4841407;28;97245;-87
2022/12/03 11:58:00;;;;;;;68.97;37.97;;;;;;;2.35;69.97;100961.28;4847802;28;98109;-88
2022/12/03 12:00:25;;;;;;;72.60;38.20;;;;;;;2.32;69.82;100952.63;4854417;28;101586;-90
2022/12/03 12:02:53;;;;;;;67.63;37.23;;;;;;;2.30;69.97;100951.72;4827486;29;97307;-89
2022/12/03 12:05:31;;;;;;;64.77;35.53;;;;;;;2.32;69.96;100961.25;4854612;28;98397;-86
2022/12/03 12:07:57;;;;;;;64.63;35.70;;;;;;;2.35;70.07;100966.47;4846747;28;101743;-89
2022/12/03 12:10:56;;;;;;;69.50;36.03;;;;;;;2.41;69.76;100960.47;4840352;28;100676;-91
2022/12/03 12:13:30;;;;;;;61.07;34.03;;;;;;;2.40;70.24;100958.75;4802630;29;97118;-89
2022/12/03 12:16:04;;;;;;;69.43;36.67;;;;;;;2.31;69.76;100946.56;4861713;28;97128;-92
2022/12/03 12:18:35;;;;;;;66.90;37.20;;;;;;;2.36;69.53;100936.28;4846281;29;100270;-85
2022/12/03 12:21:48;;;;;;;70.38;38.08;;;;;;;2.39;70.30;100957.88;4840786;28;100322;-91
2022/12/03 12:24:44;;;;;;;70.00;36.47;;;;;;;2.29;70.38;100937.91;4848261;28;96857;-92
2022/12/03 12:27:15;;;;;;;76.53;38.97;;;;;;;2.41;70.41;100940.59;4837223;29;96866;-87
2022/12/03 12:29:42;;;;;;;79.63;37.07;;;;;;;2.42;70.10;100932.00;4858798;28;100886;-89
2022/12/03 12:32:07;;;;;;;74.07;37.10;;;;;;;2.39;70.24;100920.75;4837312;28;100361;-89
2022/12/03 12:34:35;;;;;;;67.87;35.33;;;;;;;2.43;70.49;100940.63;4844965;28;97297;-89
2022/12/03 12:37:01;;;;;;;70.60;37.87;;;;;;;2.40;70.32;100940.59;4847045;28;96807;-92
2022/12/03 12:39:27;;;;;;;72.27;38.17;;;;;;;2.41;70.62;100939.75;4837254;28;101045;-90
2022/12/03 12:41:53;;;;;;;72.40;39.10;;;;;;;2.52;70.11;100935.53;4833975;28;101525;-89
2022/12/03 12:44:22;;;;;;;75.27;38.93;;;;;;;2.54;70.14;100932.97;4839054;29;99092;-92